createdAt,value
2019-02-04T00:00:41.026Z,-1.70
2019-02-04T00:03:12.551Z,-1.70
2019-02-04T00:05:41.156Z,-1.70
2019-02-04T00:08:09.751Z,-1.70
2019-02-04T00:10:38.333Z,-1.70
2019-02-04T00:13:07.303Z,-1.70
2019-02-04T00:15:36.067Z,-1.70
2019-02-04T00:18:05.934Z,-1.70
2019-02-04T00:20:34.630Z,-1.80
2019-02-04T00:23:03.228Z,-1.80
2019-02-04T00:25:31.690Z,-1.80
2019-02-04T00:28:00.123Z,-1.80
2019-02-04T00:30:29.024Z,-1.80
2019-02-04T00:32:57.448Z,-1.80
2019-02-04T00:35:25.887Z,-1.80
2019-02-04T00:37:54.397Z,-1.80
2019-02-04T00:40:25.158Z,-1.80
2019-02-04T00:42:53.731Z,-1.80
2019-02-04T00:45:22.305Z,-1.80
2019-02-04T00:47:50.782Z,-1.80
2019-02-04T00:50:22.039Z,-1.80
2019-02-04T00:52:50.738Z,-1.80
2019-02-04T00:55:21.113Z,-1.80
2019-02-04T00:57:49.606Z,-1.90
2019-02-04T01:00:23.772Z,-1.90
2019-02-04T01:02:52.511Z,-1.90
2019-02-04T01:05:21.762Z,-1.90
2019-02-04T01:07:50.276Z,-2.00
2019-02-04T01:10:22.283Z,-2.00
2019-02-04T01:12:50.937Z,-2.00
2019-02-04T01:15:19.602Z,-2.00
2019-02-04T01:17:48.125Z,-2.00
2019-02-04T01:20:22.342Z,-2.00
2019-02-04T01:22:51.233Z,-2.10
2019-02-04T01:25:20.132Z,-2.10
2019-02-04T01:27:48.650Z,-2.10
2019-02-04T01:30:20.123Z,-2.10
2019-02-04T01:32:48.759Z,-2.10
2019-02-04T01:35:17.314Z,-2.10
2019-02-04T01:37:46.378Z,-2.10
2019-02-04T01:40:20.548Z,-2.10
2019-02-04T01:42:48.990Z,-2.10
2019-02-04T01:45:17.559Z,-2.10
2019-02-04T01:47:46.074Z,-2.20
2019-02-04T01:50:19.536Z,-2.30
2019-02-04T01:52:48.119Z,-2.30
2019-02-04T01:55:16.558Z,-2.30
2019-02-04T01:57:47.447Z,-2.30
2019-02-04T02:00:27.488Z,-2.40
2019-02-04T02:02:56.306Z,-2.40
2019-02-04T02:05:24.803Z,-2.40
2019-02-04T02:07:53.318Z,-2.50
2019-02-04T02:10:23.683Z,-2.50
2019-02-04T02:12:52.534Z,-2.50
2019-02-04T02:15:21.308Z,-2.50
2019-02-04T02:17:50.194Z,-2.50
2019-02-04T02:20:21.466Z,-2.50
2019-02-04T02:22:50.238Z,-2.50
2019-02-04T02:25:18.759Z,-2.50
2019-02-04T02:27:47.201Z,-2.50
2019-02-04T02:30:18.446Z,-2.50
2019-02-04T02:32:47.006Z,-2.50
2019-02-04T02:35:16.226Z,-2.50
2019-02-04T02:37:44.647Z,-2.50
2019-02-04T02:40:16.161Z,-2.50
2019-02-04T02:42:44.591Z,-2.50
2019-02-04T02:45:13.876Z,-2.50
2019-02-04T02:47:42.287Z,-2.50
2019-02-04T02:50:13.572Z,-2.40
2019-02-04T02:52:42.057Z,-2.40
2019-02-04T02:55:13.652Z,-2.40
2019-02-04T02:57:42.077Z,-2.40
2019-02-04T03:00:25.033Z,-2.40
2019-02-04T03:02:53.541Z,-2.40
2019-02-04T03:05:22.046Z,-2.30
2019-02-04T03:07:50.538Z,-2.40
2019-02-04T03:10:22.336Z,-2.40
2019-02-04T03:12:50.964Z,-2.40
2019-02-04T03:15:19.640Z,-2.40
2019-02-04T03:17:51.898Z,-2.40
2019-02-04T03:20:18.784Z,-2.30
2019-02-04T03:22:47.292Z,-2.30
2019-02-04T03:25:15.803Z,-2.30
2019-02-04T03:27:44.406Z,-2.30
2019-02-04T03:30:21.958Z,-2.30
2019-02-04T03:32:50.443Z,-2.40
2019-02-04T03:35:19.222Z,-2.40
2019-02-04T03:37:47.716Z,-2.50
2019-02-04T03:40:19.456Z,-2.50
2019-02-04T03:42:47.946Z,-2.50
2019-02-04T03:45:16.636Z,-2.60
2019-02-04T03:47:45.317Z,-2.60
2019-02-04T03:50:14.402Z,-2.60
2019-02-04T03:52:42.826Z,-2.70
2019-02-04T03:55:13.381Z,-2.70
2019-02-04T03:57:41.807Z,-2.70
2019-02-04T04:00:24.735Z,-2.80
2019-02-04T04:02:53.524Z,-2.80
2019-02-04T04:05:22.026Z,-2.90
2019-02-04T04:07:53.299Z,-2.90
2019-02-04T04:10:20.677Z,-2.90
2019-02-04T04:12:49.181Z,-2.90
2019-02-04T04:15:18.746Z,-3.00
2019-02-04T04:17:47.190Z,-3.00
2019-02-04T04:20:17.731Z,-3.00
2019-02-04T04:22:46.253Z,-3.10
2019-02-04T04:25:16.822Z,-3.10
2019-02-04T04:27:45.263Z,-3.10
2019-02-04T04:30:25.239Z,-3.20
2019-02-04T04:32:54.307Z,-3.20
2019-02-04T04:35:22.891Z,-3.20
2019-02-04T04:37:51.418Z,-3.30
2019-02-04T04:40:20.019Z,-3.30
2019-02-04T04:42:48.533Z,-3.40
2019-02-04T04:45:25.271Z,-3.50
2019-02-04T04:47:53.791Z,-3.60
2019-02-04T04:50:22.474Z,-3.60
2019-02-04T04:52:51.285Z,-3.60
2019-02-04T04:55:26.749Z,-3.70
2019-02-04T04:57:56.014Z,-3.80
2019-02-04T05:00:27.347Z,-3.90
2019-02-04T05:02:55.841Z,-3.90
2019-02-04T05:05:24.381Z,-4.00
2019-02-04T05:07:53.184Z,-4.10
2019-02-04T05:10:22.269Z,-4.10
2019-02-04T05:12:50.948Z,-4.20
2019-02-04T05:15:24.603Z,-4.20
2019-02-04T05:17:53.240Z,-4.30
2019-02-04T05:20:21.975Z,-4.30
2019-02-04T05:22:50.567Z,-4.30
2019-02-04T05:25:19.057Z,-4.40
2019-02-04T05:27:47.559Z,-4.40
2019-02-04T05:30:17.947Z,-4.40
2019-02-04T05:32:46.395Z,-4.50
2019-02-04T05:35:15.042Z,-4.60
2019-02-04T05:37:43.467Z,-4.70
2019-02-04T05:40:14.837Z,-4.80
2019-02-04T05:42:43.538Z,-4.90
2019-02-04T05:45:14.990Z,-5.00
2019-02-04T05:47:43.424Z,-5.00
2019-02-04T05:50:17.470Z,-5.10
2019-02-04T05:52:46.484Z,-5.10
2019-02-04T05:55:15.658Z,-5.20
2019-02-04T05:57:44.207Z,-5.30
2019-02-04T06:00:16.521Z,-5.30
2019-02-04T06:02:44.959Z,-5.40
2019-02-04T06:05:14.341Z,-5.50
2019-02-04T06:07:42.831Z,-5.50
2019-02-04T06:10:12.023Z,-5.60
2019-02-04T06:12:40.539Z,-5.60
2019-02-04T06:15:12.034Z,-5.60
2019-02-04T06:17:40.466Z,-5.70
2019-02-04T06:20:21.104Z,-5.70
2019-02-04T06:22:49.531Z,-5.80
2019-02-04T06:25:17.970Z,-5.90
2019-02-04T06:27:46.474Z,-5.90
2019-02-04T06:30:16.740Z,-6.00
2019-02-04T06:32:45.250Z,-6.10
2019-02-04T06:35:15.817Z,-6.20
2019-02-04T06:37:46.643Z,-6.20
2019-02-04T06:40:18.109Z,-6.30
2019-02-04T06:42:46.623Z,-6.30
2019-02-04T06:45:18.647Z,-6.40
2019-02-04T06:47:47.326Z,-6.50
2019-02-04T06:50:17.895Z,-6.50
2019-02-04T06:52:46.503Z,-6.50
2019-02-04T06:55:20.577Z,-6.60
2019-02-04T06:57:49.100Z,-6.70
2019-02-04T07:00:18.259Z,-6.70
2019-02-04T07:02:46.845Z,-6.70
2019-02-04T07:05:17.094Z,-6.70
2019-02-04T07:07:45.683Z,-6.70
2019-02-04T07:10:17.549Z,-6.70
2019-02-04T07:12:45.963Z,-6.70
2019-02-04T07:15:14.758Z,-6.60
2019-02-04T07:17:43.415Z,-6.60
2019-02-04T07:20:17.750Z,-6.40
2019-02-04T07:22:46.254Z,-6.30
2019-02-04T07:25:16.347Z,-6.20
2019-02-04T07:27:44.840Z,-6.10
2019-02-04T07:30:16.442Z,-6.10
2019-02-04T07:32:44.940Z,-5.90
2019-02-04T07:35:16.109Z,-5.90
2019-02-04T07:37:44.600Z,-5.70
2019-02-04T07:40:16.133Z,-5.50
2019-02-04T07:42:44.787Z,-5.40
2019-02-04T07:45:13.587Z,-5.30
2019-02-04T07:47:42.047Z,-5.10
2019-02-04T07:50:11.118Z,-5.00
2019-02-04T07:52:39.630Z,-4.90
2019-02-04T07:55:10.023Z,-4.80
2019-02-04T07:57:38.638Z,-4.60
2019-02-04T08:00:12.791Z,-4.40
2019-02-04T08:02:41.563Z,-4.30
2019-02-04T08:05:10.349Z,-4.00
2019-02-04T08:07:38.970Z,-4.00
2019-02-04T08:10:10.498Z,-3.90
2019-02-04T08:12:38.950Z,-3.80
2019-02-04T08:15:16.915Z,-3.80
2019-02-04T08:17:45.420Z,-3.70
2019-02-04T08:20:14.205Z,-3.50
2019-02-04T08:22:42.743Z,-3.60
2019-02-04T08:25:13.786Z,-3.70
2019-02-04T08:27:42.398Z,-3.80
2019-02-04T08:30:17.237Z,-3.70
2019-02-04T08:32:45.673Z,-3.70
2019-02-04T08:35:14.331Z,-3.50
2019-02-04T08:37:42.851Z,-3.40
2019-02-04T08:40:14.504Z,-3.40
2019-02-04T08:42:43.019Z,-3.50
2019-02-04T08:45:13.605Z,-3.40
2019-02-04T08:47:42.130Z,-3.30
2019-02-04T08:50:13.934Z,-3.10
2019-02-04T08:52:42.385Z,-3.10
2019-02-04T08:55:11.948Z,-3.00
2019-02-04T08:57:40.585Z,-2.90
2019-02-04T09:00:12.744Z,-2.80
2019-02-04T09:02:41.285Z,-2.80
2019-02-04T09:05:12.515Z,-2.90
2019-02-04T09:07:41.033Z,-2.80
2019-02-04T09:10:14.910Z,-2.80
2019-02-04T09:12:43.044Z,-2.70
2019-02-04T09:15:16.355Z,-3.00
2019-02-04T09:17:44.733Z,-2.90
2019-02-04T09:20:15.861Z,-2.50
2019-02-04T09:22:44.926Z,-2.30
2019-02-04T09:25:15.833Z,-2.10
2019-02-04T09:27:44.332Z,-2.30
2019-02-04T09:30:18.486Z,-2.10
2019-02-04T09:32:47.095Z,-1.90
2019-02-04T09:35:18.039Z,-1.60
2019-02-04T09:37:46.543Z,-1.50
2019-02-04T09:40:18.053Z,-1.50
2019-02-04T09:42:47.019Z,-1.30
2019-02-04T09:45:17.267Z,-1.00
2019-02-04T09:47:46.443Z,-0.80
2019-02-04T09:50:21.970Z,-0.40
2019-02-04T09:52:47.863Z,-0.30
2019-02-04T09:55:19.259Z,0.30
2019-02-04T09:57:48.233Z,0.40
2019-02-04T10:00:25.118Z,1.10
2019-02-04T10:02:53.626Z,1.50
2019-02-04T10:05:23.815Z,1.90
2019-02-04T10:07:52.299Z,2.10
2019-02-04T10:10:26.535Z,2.40
2019-02-04T10:12:55.091Z,3.30
2019-02-04T10:15:31.706Z,3.10
2019-02-04T10:18:00.194Z,3.20
2019-02-04T10:20:33.945Z,3.60
2019-02-04T10:22:58.973Z,4.00
2019-02-04T10:25:35.863Z,4.40
2019-02-04T10:28:04.920Z,4.60
2019-02-04T10:30:33.455Z,5.10
2019-02-04T10:33:02.045Z,5.30
2019-02-04T10:35:31.054Z,5.10
2019-02-04T10:37:59.663Z,5.20
2019-02-04T10:40:29.691Z,5.40
2019-02-04T10:42:58.224Z,5.60
2019-02-04T10:45:26.946Z,5.30
2019-02-04T10:47:55.711Z,5.80
2019-02-04T10:50:26.869Z,5.60
2019-02-04T10:52:55.414Z,5.60
2019-02-04T10:55:23.882Z,5.40
2019-02-04T10:57:52.591Z,4.90
2019-02-04T11:00:27.271Z,4.90
2019-02-04T11:02:55.727Z,5.20
2019-02-04T11:05:27.082Z,5.40
2019-02-04T11:07:55.594Z,5.40
2019-02-04T11:10:26.578Z,5.10
2019-02-04T11:12:55.330Z,5.00
2019-02-04T11:15:25.578Z,4.80
2019-02-04T11:17:53.989Z,4.40
2019-02-04T11:20:25.513Z,4.30
2019-02-04T11:22:54.333Z,4.90
2019-02-04T11:25:22.939Z,4.80
2019-02-04T11:27:51.447Z,4.00
2019-02-04T11:30:28.335Z,2.90
2019-02-04T11:32:57.061Z,2.80
2019-02-04T11:35:26.692Z,2.60
2019-02-04T11:37:55.276Z,2.50
2019-02-04T11:40:34.882Z,2.20
2019-02-04T11:43:03.518Z,2.30
2019-02-04T11:45:32.412Z,2.10
2019-02-04T11:48:01.585Z,2.00
2019-02-04T11:50:30.148Z,1.90
2019-02-04T11:52:58.753Z,2.50
2019-02-04T11:55:27.206Z,2.00
2019-02-04T11:57:55.769Z,1.70
2019-02-04T12:00:32.190Z,1.80
2019-02-04T12:03:05.623Z,2.00
2019-02-04T12:05:34.199Z,2.60
2019-02-04T12:08:02.688Z,2.20
2019-02-04T12:10:49.070Z,1.80
2019-02-04T12:13:17.507Z,2.10
2019-02-04T12:15:46.015Z,2.30
2019-02-04T12:18:14.449Z,2.50
2019-02-04T12:20:42.965Z,2.30
2019-02-04T12:23:11.662Z,2.20
2019-02-04T12:25:40.480Z,2.20
2019-02-04T12:28:08.962Z,2.20
2019-02-04T12:30:42.308Z,2.50
2019-02-04T12:33:13.162Z,2.10
2019-02-04T12:35:41.882Z,2.50
2019-02-04T12:38:10.435Z,2.50
2019-02-04T12:40:39.018Z,2.60
2019-02-04T12:43:07.510Z,3.10
2019-02-04T12:45:38.091Z,3.10
2019-02-04T12:48:07.258Z,3.10
2019-02-04T12:50:35.759Z,3.30
2019-02-04T12:53:05.012Z,3.90
2019-02-04T12:55:34.074Z,3.90
2019-02-04T12:58:02.589Z,4.40
2019-02-04T13:00:32.251Z,4.90
2019-02-04T13:03:00.690Z,4.90
2019-02-04T13:05:41.028Z,4.60
2019-02-04T13:08:11.001Z,4.40
2019-02-04T13:10:39.508Z,4.20
2019-02-04T13:13:10.072Z,4.10
2019-02-04T13:15:38.874Z,4.40
2019-02-04T13:18:08.381Z,4.50
2019-02-04T13:20:37.079Z,4.20
2019-02-04T13:23:05.767Z,3.80
2019-02-04T13:25:34.323Z,3.70
2019-02-04T13:28:03.007Z,3.70
2019-02-04T13:30:32.069Z,3.70
2019-02-04T13:33:00.582Z,3.80
2019-02-04T13:35:30.923Z,4.00
2019-02-04T13:37:59.671Z,3.90
2019-02-04T13:40:29.370Z,3.60
2019-02-04T13:42:58.050Z,3.40
2019-02-04T13:45:28.312Z,3.20
2019-02-04T13:47:56.838Z,2.90
2019-02-04T13:50:25.423Z,2.80
2019-02-04T13:52:54.326Z,2.70
2019-02-04T13:55:37.305Z,2.70
2019-02-04T13:58:06.429Z,2.60
2019-02-04T14:00:36.400Z,2.50
2019-02-04T14:03:06.143Z,2.40
2019-02-04T14:05:34.646Z,2.40
2019-02-04T14:08:03.340Z,2.30
2019-02-04T14:10:37.421Z,2.10
2019-02-04T14:13:06.677Z,2.00
2019-02-04T14:15:36.090Z,2.10
2019-02-04T14:18:05.642Z,2.10
2019-02-04T14:20:34.329Z,2.10
2019-02-04T14:23:02.748Z,1.90
2019-02-04T14:25:31.443Z,1.80
2019-02-04T14:28:03.182Z,1.50
2019-02-04T14:30:38.486Z,1.30
2019-02-04T14:33:07.154Z,1.10
2019-02-04T14:35:35.674Z,1.10
2019-02-04T14:38:05.123Z,1.00
2019-02-04T14:40:33.916Z,1.00
2019-02-04T14:43:16.626Z,1.00
2019-02-04T14:46:12.243Z,0.90
2019-02-04T14:48:55.659Z,1.00
2019-02-04T14:51:36.321Z,0.90
2019-02-04T14:54:19.474Z,0.90
2019-02-04T14:57:03.427Z,0.80
2019-02-04T14:59:32.525Z,0.70
2019-02-04T15:02:09.822Z,0.70
2019-02-04T15:04:53.403Z,0.60
2019-02-04T15:07:55.649Z,0.60
2019-02-04T15:10:36.061Z,0.60
2019-02-04T15:13:25.687Z,0.60
2019-02-04T15:15:59.993Z,0.60
2019-02-04T15:18:31.901Z,0.50
2019-02-04T15:21:15.502Z,0.50
2019-02-04T15:23:49.886Z,0.40
2019-02-04T15:26:37.915Z,0.30
2019-02-04T15:29:24.515Z,0.30
2019-02-04T15:32:01.707Z,0.20
2019-02-04T15:34:48.088Z,0.10
2019-02-04T15:37:31.533Z,0.10
2019-02-04T15:40:05.903Z,0.00
2019-02-04T15:42:52.744Z,-0.10
2019-02-04T15:45:40.650Z,-0.20
2019-02-04T15:48:10.040Z,-0.30
2019-02-04T15:50:53.772Z,-0.30
2019-02-04T15:53:22.214Z,-0.50
2019-02-04T15:55:51.374Z,-0.60
2019-02-04T15:58:19.833Z,-0.70
2019-02-04T16:00:48.433Z,-0.80
2019-02-04T16:03:16.976Z,-0.90
2019-02-04T16:05:45.399Z,-0.90
2019-02-04T16:08:13.914Z,-1.00
2019-02-04T16:10:42.353Z,-1.10
2019-02-04T16:13:10.788Z,-1.10
2019-02-04T16:15:42.278Z,-1.20
2019-02-04T16:18:09.890Z,-1.30
2019-02-04T16:20:38.407Z,-1.40
2019-02-04T16:23:07.366Z,-1.40
2019-02-04T16:25:35.969Z,-1.50
2019-02-04T16:28:04.544Z,-1.50
2019-02-04T16:30:33.134Z,-1.60
2019-02-04T16:33:01.704Z,-1.70
2019-02-04T16:35:30.315Z,-1.70
2019-02-04T16:37:58.806Z,-1.80
2019-02-04T16:40:27.375Z,-1.80
2019-02-04T16:42:55.874Z,-1.90
2019-02-04T16:45:25.480Z,-2.00
2019-02-04T16:47:54.168Z,-2.00
2019-02-04T16:50:27.733Z,-2.10
2019-02-04T16:52:57.022Z,-2.20
2019-02-04T16:55:25.679Z,-2.30
2019-02-04T16:57:54.662Z,-2.40
2019-02-04T17:00:28.833Z,-2.40
2019-02-04T17:02:57.342Z,-2.50
2019-02-04T17:05:26.953Z,-2.50
2019-02-04T17:07:55.528Z,-2.50
2019-02-04T17:10:26.435Z,-2.50
2019-02-04T17:12:55.139Z,-2.50
2019-02-04T17:15:25.662Z,-2.50
2019-02-04T17:17:54.489Z,-2.60
2019-02-04T17:20:28.212Z,-2.70
2019-02-04T17:22:57.167Z,-2.80
2019-02-04T17:25:25.673Z,-2.90
2019-02-04T17:27:54.188Z,-2.90
2019-02-04T17:30:24.535Z,-3.00
2019-02-04T17:32:53.254Z,-3.00
2019-02-04T17:35:22.010Z,-3.10
2019-02-04T17:37:50.458Z,-3.10
2019-02-04T17:40:25.907Z,-3.20
2019-02-04T17:42:56.713Z,-3.20
2019-02-04T17:45:25.213Z,-3.30
2019-02-04T17:47:54.265Z,-3.40
2019-02-04T17:50:23.262Z,-3.50
2019-02-04T17:52:52.255Z,-3.50
2019-02-04T17:55:23.866Z,-3.60
2019-02-04T17:57:53.110Z,-3.60
2019-02-04T18:00:40.585Z,-3.60
2019-02-04T18:03:09.229Z,-3.70
2019-02-04T18:05:37.864Z,-3.80
2019-02-04T18:08:06.753Z,-3.80
2019-02-04T18:10:35.274Z,-3.80
2019-02-04T18:13:03.791Z,-3.90
2019-02-04T18:15:32.235Z,-3.90
2019-02-04T18:18:00.715Z,-4.00
2019-02-04T18:20:29.203Z,-4.10
2019-02-04T18:22:57.925Z,-4.10
2019-02-04T18:25:27.181Z,-4.20
2019-02-04T18:27:55.811Z,-4.30
2019-02-04T18:30:25.705Z,-4.20
2019-02-04T18:32:54.199Z,-4.30
2019-02-04T18:35:24.768Z,-4.40
2019-02-04T18:37:53.335Z,-4.40
2019-02-04T18:40:23.504Z,-4.50
2019-02-04T18:42:52.444Z,-4.50
2019-02-04T18:45:23.671Z,-4.60
2019-02-04T18:47:52.419Z,-4.60
2019-02-04T18:50:22.495Z,-4.60
2019-02-04T18:52:51.559Z,-4.60
2019-02-04T18:55:22.923Z,-4.60
2019-02-04T18:57:51.612Z,-4.70
2019-02-04T19:01:09.131Z,-4.80
2019-02-04T19:03:37.930Z,-4.80
2019-02-04T19:06:06.468Z,-4.80
2019-02-04T19:08:35.001Z,-4.90
2019-02-04T19:11:04.020Z,-5.00
2019-02-04T19:13:36.336Z,-5.00
2019-02-04T19:16:02.994Z,-5.00
2019-02-04T19:18:31.435Z,-5.00
2019-02-04T19:21:00.063Z,-5.00
2019-02-04T19:23:28.506Z,-5.00
2019-02-04T19:25:57.099Z,-4.90
2019-02-04T19:28:25.591Z,-4.80
2019-02-04T19:30:57.352Z,-4.70
2019-02-04T19:33:25.911Z,-4.60
2019-02-04T19:35:54.650Z,-4.50
2019-02-04T19:38:23.136Z,-4.40
2019-02-04T19:40:51.763Z,-4.30
2019-02-04T19:43:20.229Z,-4.30
2019-02-04T19:45:48.778Z,-4.20
2019-02-04T19:48:17.422Z,-4.10
2019-02-04T19:50:45.921Z,-4.10
2019-02-04T19:53:14.467Z,-4.00
2019-02-04T19:55:42.983Z,-3.90
2019-02-04T19:58:11.912Z,-3.90
2019-02-04T20:00:40.415Z,-3.80
2019-02-04T20:03:09.463Z,-3.70
2019-02-04T20:05:37.895Z,-3.70
2019-02-04T20:08:06.833Z,-3.60
2019-02-04T20:10:35.605Z,-3.60
2019-02-04T20:13:04.690Z,-3.50
2019-02-04T20:15:33.767Z,-3.40
2019-02-04T20:18:02.386Z,-3.40
2019-02-04T20:20:31.276Z,-3.40
2019-02-04T20:23:00.024Z,-3.30
2019-02-04T20:25:33.518Z,-3.20
2019-02-04T20:28:03.311Z,-3.20
2019-02-04T20:30:45.379Z,-3.10
2019-02-04T20:33:10.459Z,-2.90
2019-02-04T20:35:38.378Z,-2.70
2019-02-04T20:38:07.902Z,-2.60
2019-02-04T20:40:36.542Z,-2.60
2019-02-04T20:43:06.525Z,-2.70
2019-02-04T20:45:35.154Z,-2.50
2019-02-04T20:48:04.523Z,-2.50
2019-02-04T20:50:35.634Z,-2.40
2019-02-04T20:53:04.228Z,-2.30
2019-02-04T20:55:32.779Z,-2.30
2019-02-04T20:58:01.618Z,-2.30
2019-02-04T21:00:31.208Z,-2.20
2019-02-04T21:03:01.806Z,-2.20
2019-02-04T21:05:30.167Z,-2.20
2019-02-04T21:07:58.695Z,-2.20
2019-02-04T21:10:28.928Z,-2.10
2019-02-04T21:12:57.780Z,-2.10
2019-02-04T21:15:26.677Z,-2.00
2019-02-04T21:17:55.580Z,-2.00
2019-02-04T21:20:26.562Z,-2.00
2019-02-04T21:22:55.122Z,-2.00
2019-02-04T21:25:23.842Z,-2.00
2019-02-04T21:27:52.544Z,-2.00
2019-02-04T21:30:29.730Z,-1.90
2019-02-04T21:32:58.344Z,-2.00
2019-02-04T21:35:26.943Z,-2.00
2019-02-04T21:37:55.640Z,-1.90
2019-02-04T21:40:24.221Z,-1.90
2019-02-04T21:42:53.164Z,-1.90
2019-02-04T21:45:24.068Z,-1.90
2019-02-04T21:47:52.761Z,-1.90
2019-02-04T21:50:28.233Z,-1.90
2019-02-04T21:52:56.976Z,-1.90
2019-02-04T21:55:25.872Z,-1.90
2019-02-04T21:57:54.331Z,-1.90
2019-02-04T22:00:37.602Z,-1.90
2019-02-04T22:03:06.146Z,-1.90
2019-02-04T22:05:35.498Z,-1.90
2019-02-04T22:08:05.273Z,-1.90
2019-02-04T22:10:33.709Z,-2.00
2019-02-04T22:13:02.230Z,-1.90
2019-02-04T22:15:30.670Z,-1.90
2019-02-04T22:17:59.122Z,-1.90
2019-02-04T22:20:27.560Z,-1.90
2019-02-04T22:22:56.182Z,-1.90
2019-02-04T22:25:25.736Z,-1.90
2019-02-04T22:27:54.602Z,-2.00
2019-02-04T22:30:30.367Z,-1.90
2019-02-04T22:32:59.294Z,-1.90
2019-02-04T22:35:27.867Z,-1.90
2019-02-04T22:37:57.098Z,-1.90
2019-02-04T22:40:29.850Z,-1.90
2019-02-04T22:42:58.559Z,-2.00
2019-02-04T22:45:27.365Z,-2.00
2019-02-04T22:47:56.081Z,-2.00
2019-02-04T22:50:27.135Z,-2.00
2019-02-04T22:52:55.771Z,-1.90
2019-02-04T22:55:32.163Z,-1.90
2019-02-04T22:57:55.090Z,-2.00
2019-02-04T23:00:50.941Z,-2.00
2019-02-04T23:03:22.782Z,-2.00
2019-02-04T23:05:51.246Z,-2.00
2019-02-04T23:08:19.671Z,-2.00
2019-02-04T23:10:48.513Z,-2.00
2019-02-04T23:13:17.083Z,-1.90
2019-02-04T23:15:45.734Z,-1.90
2019-02-04T23:18:14.790Z,-2.00
2019-02-04T23:20:43.427Z,-2.00
2019-02-04T23:23:11.927Z,-2.00
2019-02-04T23:25:43.642Z,-2.00
2019-02-04T23:28:10.676Z,-2.00
2019-02-04T23:30:39.391Z,-2.00
2019-02-04T23:33:07.890Z,-2.10
2019-02-04T23:35:36.431Z,-2.10
2019-02-04T23:38:05.606Z,-2.20
2019-02-04T23:40:34.151Z,-2.20
2019-02-04T23:43:02.590Z,-2.30
2019-02-04T23:45:31.038Z,-2.40
2019-02-04T23:48:00.116Z,-2.40
2019-02-04T23:50:28.639Z,-2.40
2019-02-04T23:52:57.147Z,-2.50
2019-02-04T23:55:25.672Z,-2.50
2019-02-04T23:57:54.170Z,-2.50
